This is the latest recevied weather packets stored in our database for station/object GW1497. If no packets are shown the sender has not sent any weather packets the latest 10 day(s).
| Time | Temp. | Humidity | Pressure | Rain* | Wind** | Luminosity | Snow |
|---|---|---|---|---|---|---|---|
| 1777882336 | 10° C | 65% | 1015.5 hPa | 0 mm | - | - | - |
| 1777861114 | 12.22° C | 46% | 1016.5 hPa | 0 mm | - | - | - |
| 1777857134 | 12.22° C | 44% | 1016.5 hPa | 0 mm | - | - | - |
| 1777856078 | 12.78° C | 44% | 1016.9 hPa | 0 mm | - | - | - |
| 1777849972 | 13.89° C | 38% | 1016.9 hPa | 0 mm | - | - | - |
| 1777848143 | 14.44° C | 39% | 1016.9 hPa | 0 mm | - | - | - |
| 1777836981 | 15° C | 37% | 1018.2 hPa | 0 mm | - | - | - |
| 1777836644 | 14.44° C | 37% | 1018.6 hPa | 0 mm | - | - | - |
| 1777832334 | 13.89° C | 40% | 1019.6 hPa | 0 mm | - | - | - |
| 1777830500 | 12.22° C | 42% | 1019.9 hPa | 0 mm | - | - | - |
| 1777824410 | 11.67° C | 44% | 1020.6 hPa | 0 mm | - | - | - |
| 1777823677 | 11.11° C | 45% | 1021.3 hPa | 0 mm | - | - | - |
| 1777821138 | 10° C | 48% | 1021.3 hPa | 0 mm | - | - | - |
| 1777820790 | 10.56° C | 47% | 1021.3 hPa | 0 mm | - | - | - |
| 1777820078 | 9.44° C | 57% | 1021.3 hPa | 0 mm | - | - | - |
| 1777818641 | 8.89° C | 55% | 1021.3 hPa | 0 mm | - | - | - |
| 1777816828 | 8.33° C | 64% | 1021.6 hPa | 0 mm | - | - | - |
| 1777808179 | 0.56° C | 99% | 1020.6 hPa | 0 mm | - | - | - |
| 1777807091 | 0° C | 99% | 1020.3 hPa | 0 mm | - | - | - |
| 1777804936 | -0.56° C | 99% | 1019.9 hPa | 0 mm | - | - | - |
| 1777802774 | -0.56° C | 99% | 1019.3 hPa | 0 mm | - | - | - |
| 1777798814 | -0.56° C | 99% | 1019.3 hPa | 0 mm | - | - | - |
| 1777797760 | -0.56° C | 99% | 1019.3 hPa | 0 mm | - | - | - |
| 1777797038 | -0.56° C | 99% | 1019.3 hPa | 0 mm | - | - | - |
| 1777796691 | -0.56° C | 99% | 1019.3 hPa | 0 mm | - | - | - |
* Rain since midnight (hover to see other rain measurements)
** Current wind speed in m/s (hover to see current wind gust speed)